ZEC weather

Secunda Airport
Secunda, Mpumalanga, South Africa

Public forecast

Using degrees Celsius for public forecast. Weather courtesy of forecast.io.

METAR (pilot weather report)

Report is more than 6 hours old.

Closest report is Ermelo Airport, 43.5 nm (80.6 km) E. Retrieved 2019/05/19 07:48 UTC (6 hours ago):

FAEO 190748Z 15002KT CAVOK 19/01 Q1029

TAF (pilot weather forecast)

Forecast is more than 12 hours old.

Closest forecast is Ermelo Airport, 43.5 nm (80.6 km) E. Retrieved 2017/06/05 04:55 UTC (2 years ago):

TAF FAEO 050300Z 0504/0515 09006KT CAVOK TX18/0513ZTN05/0504Z